Seven Oaks, California
Current Conditions -  °F | °C
As of 3:35 AM on Friday 19 Dec 2014 (Local Time) from KL35 Reporting Station
Haze Haze  
Wind Chill: 19°   Ceiling: 100
Heat Index: 19°   Visibility: 4mi
Dew Point: 16°   Wind: 0mph
Humidity: 86%   Direction: NA
Pressure: 30.22"   Gusts: NA
Location:  34.1811°N, 116.928°W
Report Text: KL35 191135Z AUTO 00000KT 4SM BR BKN001 BKN038 BKN050 M07/M09 A3022 RMK AO2
Loading
Personal Weather Stations






























Interactive Weather Map New forecast layout! Learn more

10-Day Weather Forecast

Advertisements
Track Severe Weather on mobile